Airfield :







YOU CAN JOIN US ON...

 
LOGIN :

Register | Disclaimer

   EN    FR    IT 

 









Legend :    VFR   Marginal VFR   IFR   Intensive IFR   Very Intensive IFR
Visi :
Ceiling :
>= 8 km
>= 3000ft
5 to 8 km
1000 to 3000 ft
1500m to 5 km
500 to 1000 ft
800 to 1500m
200 to 500 ft
< 800m
< 200 ft
Symbols :   Thunderstorms  Fog  Heavy snow  Heavy precipitations  Wind > 20 kt






- Airport Elevation : 22 ft
- IATA code : YDP


CYDP - Nain

CURRENT METAR :
  • 192015Z 06010KT 2SM -DZ BR SCT004 OVC008 08/08 A2985 RMK ST4ST4 SLP109

EXPIRED METARs :
  • 192000Z 06010KT 3SM BR SCT004 OVC009 09/08 A2985 RMK ST4ST4 SLP109
  • 191900Z 05008KT 4SM BR SCT004 OVC008 09/08 A2983 RMK ST3ST5 SLP104
  • 191840Z 04009KT 4SM BR SCT005 OVC009 09/08 A2982 RMK ST3ST5 SLP102
  • 191800Z 02008KT 3SM -DZ BR SCT004 OVC009 09/08 A2982 RMK ST4ST4 SLP100
  • 191741Z 03006KT 2SM -DZ BR SCT005 OVC009 09/08 A2982 RMK ST4SC4 SLP099
  • 191725Z 01006KT 4SM BR SCT005 OVC009 08/08 A2981 RMK ST3SC5 SLP098
  • 191700Z CCA 01005KT 4SM -DZ BR SCT005 OVC008 08/08 A2981 RMK ST3SC5 SLP097
  • 191642Z 05006KT 3SM -SHRA BR SCT005 OVC007 09/08 A2980 RMK ST3SC5 SLP095
  • 191618Z 04006KT 7SM VCFG SCT005 OVC009 09/08 A2979 RMK ST3SC5 FG BANK NE-SE VIS 4 SLP092
  • 191600Z 05009KT 6SM BR SCT006 OVC009 09/08 A2979 RMK ST3SC5 SLP091
  • 191538Z 36003KT 320V030 6SM BR SCT005 OVC008 09/08 A2979 RMK ST4ST4 SLP090

TAF TAF CYDP
Valid from the 19 at 20:00 until the 19 at 23:00 UTC


191940Z 1920/1923 01005KT P6SM SCT004 OVC008
TEMPO 1920/1923 4SM -DZ BR RMK NXT FCST BY 201000Z
CZQX FIR / North America



MET'MAP, your aeronautical weather chart ! - Copyright ORBIFLY December 2007 - Disclaimer

ORBIFLY MET'MAP TEAM :

Programming & Development : Alexandra Zaïnal
Original concept : Baudouin d'Aumeries
Technical & hardware support : Manuel Goepfert
Assistance : Marc-Olivier Méhu




SOURCES & CREDITS :

   NOAA